createdAt,value
2018-02-25T00:00:57.254Z,33.90
2018-02-25T00:03:24.843Z,33.90
2018-02-25T00:05:52.495Z,34.10
2018-02-25T00:08:20.011Z,34.40
2018-02-25T00:10:47.618Z,34.50
2018-02-25T00:13:15.179Z,34.60
2018-02-25T00:15:42.853Z,34.60
2018-02-25T00:18:11.372Z,34.90
2018-02-25T00:20:38.899Z,34.80
2018-02-25T00:23:06.495Z,35.00
2018-02-25T00:25:34.746Z,35.20
2018-02-25T00:28:02.251Z,35.20
2018-02-25T00:30:30.547Z,35.40
2018-02-25T00:32:58.108Z,35.40
2018-02-25T00:35:26.458Z,35.50
2018-02-25T00:37:53.994Z,35.40
2018-02-25T00:40:22.490Z,35.40
2018-02-25T00:42:50.155Z,35.40
2018-02-25T00:45:17.689Z,35.10
2018-02-25T00:47:46.001Z,35.40
2018-02-25T00:50:14.319Z,34.70
2018-02-25T00:52:41.869Z,34.70
2018-02-25T00:55:09.460Z,34.70
2018-02-25T00:57:36.984Z,34.70
2018-02-25T01:00:04.522Z,34.40
2018-02-25T01:02:32.029Z,35.10
2018-02-25T01:05:00.283Z,34.50
2018-02-25T01:07:27.866Z,34.50
2018-02-25T01:09:56.193Z,34.50
2018-02-25T01:12:24.462Z,34.50
2018-02-25T01:14:52.710Z,35.00
2018-02-25T01:17:20.216Z,34.50
2018-02-25T01:19:47.924Z,34.60
2018-02-25T01:22:15.425Z,34.60
2018-02-25T01:24:42.963Z,34.80
2018-02-25T01:27:10.513Z,34.80
2018-02-25T01:29:38.776Z,35.20
2018-02-25T01:32:06.286Z,35.10
2018-02-25T01:34:33.768Z,35.10
2018-02-25T01:37:01.304Z,35.20
2018-02-25T01:39:28.895Z,35.30
2018-02-25T01:41:57.149Z,35.60
2018-02-25T01:44:24.623Z,35.40
2018-02-25T01:46:52.201Z,35.60
2018-02-25T01:49:19.801Z,35.70
2018-02-25T01:51:48.056Z,35.60
2018-02-25T01:54:16.361Z,35.70
2018-02-25T01:56:44.634Z,35.80
2018-02-25T01:59:12.127Z,35.80
2018-02-25T02:01:39.910Z,35.90
2018-02-25T02:04:08.225Z,35.90
2018-02-25T02:06:39.707Z,35.90
2018-02-25T02:09:07.283Z,36.00
2018-02-25T02:11:34.906Z,36.30
2018-02-25T02:14:02.588Z,36.50
2018-02-25T02:16:31.097Z,36.30
2018-02-25T02:18:58.628Z,36.20
2018-02-25T02:21:26.930Z,36.70
2018-02-25T02:23:55.176Z,36.20
2018-02-25T02:26:22.808Z,36.20
2018-02-25T02:28:50.362Z,36.20
2018-02-25T02:31:18.623Z,35.90
2018-02-25T02:33:46.137Z,35.90
2018-02-25T02:36:13.662Z,35.80
2018-02-25T02:38:41.172Z,35.80
2018-02-25T02:41:08.845Z,35.90
2018-02-25T02:43:37.196Z,36.30
2018-02-25T02:46:04.696Z,36.30
2018-02-25T02:48:32.945Z,36.50
2018-02-25T02:51:00.443Z,36.40
2018-02-25T02:53:28.737Z,36.90
2018-02-25T02:55:57.036Z,36.80
2018-02-25T02:58:24.534Z,36.70
2018-02-25T03:00:52.065Z,36.50
2018-02-25T03:03:20.369Z,36.90
2018-02-25T03:05:47.890Z,36.80
2018-02-25T03:08:15.487Z,36.90
2018-02-25T03:10:43.077Z,37.10
2018-02-25T03:13:11.405Z,37.30
2018-02-25T03:15:38.952Z,37.20
2018-02-25T03:18:06.503Z,37.20
2018-02-25T03:20:34.761Z,37.90
2018-02-25T03:23:02.252Z,37.80
2018-02-25T03:25:30.510Z,38.00
2018-02-25T03:27:58.006Z,37.90
2018-02-25T03:30:25.495Z,38.10
2018-02-25T03:32:53.758Z,38.00
2018-02-25T03:35:21.278Z,38.00
2018-02-25T03:37:48.836Z,38.00
2018-02-25T03:40:16.420Z,37.90
2018-02-25T03:42:43.918Z,38.00
2018-02-25T03:45:11.450Z,38.00
2018-02-25T03:47:38.979Z,38.10
2018-02-25T03:50:06.486Z,38.10
2018-02-25T03:52:34.000Z,38.30
2018-02-25T03:55:01.486Z,38.30
2018-02-25T03:57:28.981Z,38.30
2018-02-25T03:59:57.287Z,38.40
2018-02-25T04:02:24.784Z,38.20
2018-02-25T04:04:52.270Z,38.50
2018-02-25T04:07:19.883Z,39.20
2018-02-25T04:09:48.162Z,39.10
2018-02-25T04:12:16.414Z,39.00
2018-02-25T04:14:43.985Z,39.00
2018-02-25T04:17:11.550Z,39.20
2018-02-25T04:19:39.064Z,39.20
2018-02-25T04:22:07.329Z,39.60
2018-02-25T04:24:34.920Z,39.60
2018-02-25T04:27:03.196Z,39.50
2018-02-25T04:29:30.680Z,39.40
2018-02-25T04:31:58.946Z,40.30
2018-02-25T04:34:26.446Z,39.80
2018-02-25T04:36:54.753Z,39.90
2018-02-25T04:39:22.255Z,39.80
2018-02-25T04:41:49.792Z,39.70
2018-02-25T04:44:17.446Z,39.60
2018-02-25T04:46:45.751Z,39.80
2018-02-25T04:49:13.237Z,39.60
2018-02-25T04:51:40.761Z,39.70
2018-02-25T04:54:09.343Z,40.10
2018-02-25T04:56:36.829Z,39.80
2018-02-25T04:59:04.333Z,40.00
2018-02-25T05:01:32.107Z,40.20
2018-02-25T05:03:59.602Z,40.10
2018-02-25T05:06:28.130Z,40.40
2018-02-25T05:08:55.653Z,40.30
2018-02-25T05:11:23.292Z,40.50
2018-02-25T05:13:51.583Z,40.70
2018-02-25T05:16:19.854Z,40.60
2018-02-25T05:18:47.449Z,40.60
2018-02-25T05:21:15.751Z,40.60
2018-02-25T05:23:43.304Z,40.60
2018-02-25T05:26:11.819Z,40.60
2018-02-25T05:28:39.352Z,40.60
2018-02-25T05:31:06.931Z,40.70
2018-02-25T05:33:34.640Z,40.70
2018-02-25T05:36:02.134Z,40.80
2018-02-25T05:38:29.676Z,40.80
2018-02-25T05:40:57.227Z,40.90
2018-02-25T05:43:25.513Z,41.20
2018-02-25T05:45:53.793Z,41.30
2018-02-25T05:48:21.321Z,41.20
2018-02-25T05:50:48.803Z,41.30
2018-02-25T05:53:16.326Z,41.40
2018-02-25T05:55:44.623Z,41.40
2018-02-25T05:58:12.278Z,41.30
2018-02-25T06:00:39.857Z,41.40
2018-02-25T06:03:07.390Z,41.60
2018-02-25T06:05:34.992Z,41.70
2018-02-25T06:08:03.262Z,41.70
2018-02-25T06:10:30.889Z,41.60
2018-02-25T06:12:58.395Z,41.80
2018-02-25T06:15:25.901Z,42.00
2018-02-25T06:17:54.190Z,41.90
2018-02-25T06:20:22.534Z,42.00
2018-02-25T06:22:50.051Z,42.00
2018-02-25T06:25:18.298Z,42.00
2018-02-25T06:27:45.806Z,41.90
2018-02-25T06:30:14.183Z,41.90
2018-02-25T06:32:42.664Z,42.10
2018-02-25T06:35:10.182Z,42.00
2018-02-25T06:37:37.694Z,42.10
2018-02-25T06:40:05.189Z,42.50
2018-02-25T06:42:32.774Z,42.60
2018-02-25T06:45:01.093Z,42.70
2018-02-25T06:47:28.587Z,42.70
2018-02-25T06:49:56.071Z,42.80
2018-02-25T06:52:23.677Z,42.70
2018-02-25T06:54:51.947Z,42.80
2018-02-25T06:57:19.439Z,42.70
2018-02-25T06:59:47.721Z,42.90
2018-02-25T07:02:15.248Z,42.90
2018-02-25T07:04:43.066Z,42.90
2018-02-25T07:07:11.329Z,42.60
2018-02-25T07:09:38.881Z,42.50
2018-02-25T07:12:06.397Z,43.00
2018-02-25T07:14:34.666Z,42.40
2018-02-25T07:17:02.258Z,42.40
2018-02-25T07:19:30.677Z,42.10
2018-02-25T07:21:58.260Z,42.10
2018-02-25T07:24:25.766Z,41.80
2018-02-25T07:26:53.289Z,40.80
2018-02-25T07:29:20.803Z,40.70
2018-02-25T07:31:48.499Z,40.90
2018-02-25T07:34:16.786Z,40.80
2018-02-25T07:36:45.675Z,40.60
2018-02-25T07:39:13.366Z,40.40
2018-02-25T07:41:41.662Z,40.10
2018-02-25T07:44:09.290Z,40.00
2018-02-25T07:46:37.018Z,39.90
2018-02-25T07:49:04.528Z,39.50
2018-02-25T07:51:32.049Z,39.30
2018-02-25T07:54:00.313Z,38.70
2018-02-25T07:56:27.825Z,38.70
2018-02-25T07:58:55.381Z,38.50
2018-02-25T08:01:23.695Z,37.90
2018-02-25T08:03:51.236Z,37.90
2018-02-25T08:06:19.644Z,36.70
2018-02-25T08:08:47.136Z,36.60
2018-02-25T08:11:14.753Z,36.20
2018-02-25T08:13:42.260Z,35.70
2018-02-25T08:16:09.805Z,35.30
2018-02-25T08:18:38.107Z,35.90
2018-02-25T08:21:06.403Z,34.10
2018-02-25T08:23:33.912Z,34.00
2018-02-25T08:26:01.652Z,34.20
2018-02-25T08:28:29.176Z,34.50
2018-02-25T08:30:56.682Z,34.50
2018-02-25T08:33:25.088Z,33.90
2018-02-25T08:35:52.728Z,33.90
2018-02-25T08:38:20.269Z,33.50
2018-02-25T08:40:47.798Z,33.30
2018-02-25T08:43:15.363Z,33.70
2018-02-25T08:45:43.746Z,33.10
2018-02-25T08:48:12.292Z,33.10
2018-02-25T08:50:39.927Z,33.10
2018-02-25T08:53:07.509Z,33.00
2018-02-25T08:55:35.134Z,33.20
2018-02-25T08:58:03.138Z,33.00
2018-02-25T09:00:30.703Z,32.80
2018-02-25T09:02:58.995Z,32.60
2018-02-25T09:05:27.293Z,32.90
2018-02-25T09:07:56.205Z,32.70
2018-02-25T09:10:23.746Z,32.70
2018-02-25T09:12:51.357Z,32.50
2018-02-25T09:15:18.931Z,32.30
2018-02-25T09:17:46.591Z,32.50
2018-02-25T09:20:14.919Z,32.80
2018-02-25T09:22:43.189Z,33.00
2018-02-25T09:25:10.725Z,32.90
2018-02-25T09:27:38.272Z,32.70
2018-02-25T09:30:05.877Z,32.50
2018-02-25T09:32:34.188Z,33.60
2018-02-25T09:35:01.678Z,33.00
2018-02-25T09:37:29.196Z,33.00
2018-02-25T09:39:57.475Z,32.20
2018-02-25T09:42:25.094Z,32.20
2018-02-25T09:44:52.634Z,32.20
2018-02-25T09:47:20.959Z,32.00
2018-02-25T09:49:48.551Z,32.00
2018-02-25T09:52:16.075Z,31.30
2018-02-25T09:54:43.654Z,30.70
2018-02-25T09:57:11.188Z,30.10
2018-02-25T09:59:39.535Z,29.10
2018-02-25T10:02:07.070Z,29.10
2018-02-25T10:04:34.603Z,28.80
2018-02-25T10:07:02.141Z,28.30
2018-02-25T10:09:29.817Z,27.90
2018-02-25T10:11:57.484Z,27.00
2018-02-25T10:14:25.046Z,26.60
2018-02-25T10:16:52.613Z,26.10
2018-02-25T10:19:20.128Z,25.60
2018-02-25T10:21:47.692Z,25.10
2018-02-25T10:24:15.196Z,25.00
2018-02-25T10:26:42.800Z,24.40
2018-02-25T10:29:10.553Z,23.80
2018-02-25T10:31:38.148Z,23.40
2018-02-25T10:34:05.735Z,23.00
2018-02-25T10:36:33.513Z,22.50
2018-02-25T10:39:01.047Z,22.20
2018-02-25T10:41:28.754Z,22.30
2018-02-25T10:43:56.332Z,22.30
2018-02-25T10:46:23.920Z,22.30
2018-02-25T10:48:51.421Z,22.10
2018-02-25T10:51:19.733Z,22.30
2018-02-25T10:53:47.253Z,22.30
2018-02-25T10:56:15.015Z,22.00
2018-02-25T10:58:42.523Z,21.70
2018-02-25T11:01:10.039Z,21.40
2018-02-25T11:03:37.682Z,21.00
2018-02-25T11:06:06.316Z,20.10
2018-02-25T11:08:33.870Z,20.00
2018-02-25T11:11:02.143Z,19.70
2018-02-25T11:13:30.559Z,19.80
2018-02-25T11:15:58.151Z,19.80
2018-02-25T11:18:25.685Z,19.70
2018-02-25T11:20:54.005Z,19.20
2018-02-25T11:23:21.547Z,19.20
2018-02-25T11:25:49.866Z,18.80
2018-02-25T11:28:18.442Z,18.80
2018-02-25T11:30:46.082Z,18.00
2018-02-25T11:33:13.585Z,18.80
2018-02-25T11:35:41.260Z,17.80
2018-02-25T11:38:08.808Z,18.00
2018-02-25T11:40:37.313Z,17.60
2018-02-25T11:45:33.114Z,17.40
2018-02-25T11:48:00.639Z,17.20
2018-02-25T11:50:29.048Z,17.20
2018-02-25T11:52:56.617Z,17.20
2018-02-25T11:55:24.214Z,17.10
2018-02-25T11:57:51.679Z,17.50
2018-02-25T12:00:19.286Z,16.90
2018-02-25T12:02:46.884Z,17.10
2018-02-25T12:05:15.164Z,17.40
2018-02-25T12:07:43.459Z,17.10
2018-02-25T12:10:11.774Z,17.00
2018-02-25T12:12:39.350Z,17.00
2018-02-25T12:15:07.011Z,17.00
2018-02-25T12:17:34.658Z,16.90
2018-02-25T12:20:02.960Z,17.30
2018-02-25T12:22:32.188Z,16.80
2018-02-25T12:24:59.750Z,16.80
2018-02-25T12:27:27.321Z,16.70
2018-02-25T12:29:54.887Z,17.00
2018-02-25T12:32:23.195Z,16.80
2018-02-25T12:34:50.978Z,16.80
2018-02-25T12:37:18.512Z,16.70
2018-02-25T12:39:46.921Z,17.10
2018-02-25T12:42:14.605Z,17.00
2018-02-25T12:44:42.987Z,17.00
2018-02-25T12:47:10.662Z,16.90
2018-02-25T12:49:38.203Z,16.70
2018-02-25T12:52:06.521Z,16.50
2018-02-25T12:54:34.103Z,16.70
2018-02-25T12:57:01.663Z,16.90
2018-02-25T12:59:29.236Z,17.10
2018-02-25T13:01:56.753Z,17.40
2018-02-25T13:04:24.304Z,17.70
2018-02-25T13:06:51.842Z,18.60
2018-02-25T13:09:20.131Z,17.60
2018-02-25T13:11:48.508Z,17.80
2018-02-25T13:14:17.541Z,17.80
2018-02-25T13:16:45.049Z,17.80
2018-02-25T13:19:12.697Z,17.60
2018-02-25T13:21:40.227Z,18.00
2018-02-25T13:24:08.725Z,18.60
2018-02-25T13:26:36.543Z,18.60
2018-02-25T13:29:04.088Z,18.90
2018-02-25T13:31:31.643Z,19.20
2018-02-25T13:33:59.970Z,19.30
2018-02-25T13:36:27.476Z,19.30
2018-02-25T13:38:55.008Z,19.60
2018-02-25T13:41:22.517Z,19.80
2018-02-25T13:43:50.245Z,20.20
2018-02-25T13:46:17.794Z,20.00
2018-02-25T13:48:46.100Z,19.80
2018-02-25T13:51:13.628Z,19.80
2018-02-25T13:53:41.169Z,19.70
2018-02-25T13:56:08.820Z,19.70
2018-02-25T13:58:36.338Z,20.20
2018-02-25T14:01:03.857Z,20.40
2018-02-25T14:03:31.355Z,20.60
2018-02-25T14:05:58.902Z,20.90
2018-02-25T14:08:26.426Z,20.40
2018-02-25T14:10:54.705Z,20.60
2018-02-25T14:13:22.222Z,20.60
2018-02-25T14:15:49.745Z,20.70
2018-02-25T14:18:17.318Z,20.90
2018-02-25T14:20:44.873Z,20.90
2018-02-25T14:23:12.467Z,21.30
2018-02-25T14:25:40.889Z,21.40
2018-02-25T14:28:08.444Z,21.40
2018-02-25T14:30:36.026Z,22.20
2018-02-25T14:33:03.635Z,21.80
2018-02-25T14:35:31.188Z,21.80
2018-02-25T14:37:59.075Z,21.70
2018-02-25T14:40:27.972Z,21.80
2018-02-25T14:42:55.713Z,21.90
2018-02-25T14:45:24.117Z,22.10
2018-02-25T14:47:52.217Z,22.10
2018-02-25T14:50:20.409Z,22.20
2018-02-25T14:52:48.118Z,22.50
2018-02-25T14:55:16.492Z,22.40
2018-02-25T14:57:44.116Z,22.30
2018-02-25T15:00:12.652Z,22.70
2018-02-25T15:02:40.344Z,22.70
2018-02-25T15:05:07.889Z,22.70
2018-02-25T15:07:35.435Z,23.00
2018-02-25T15:10:02.990Z,23.20
2018-02-25T15:12:31.311Z,23.60
2018-02-25T15:14:58.836Z,23.60
2018-02-25T15:17:26.364Z,23.80
2018-02-25T15:19:54.136Z,23.90
2018-02-25T15:22:21.699Z,24.00
2018-02-25T15:24:49.208Z,24.20
2018-02-25T15:27:16.772Z,24.30
2018-02-25T15:29:44.333Z,24.40
2018-02-25T15:32:11.920Z,24.50
2018-02-25T15:34:39.544Z,24.80
2018-02-25T15:37:07.093Z,24.80
2018-02-25T15:39:35.453Z,25.30
2018-02-25T15:42:03.684Z,25.30
2018-02-25T15:44:31.982Z,25.90
2018-02-25T15:46:59.662Z,25.80
2018-02-25T15:49:27.270Z,26.00
2018-02-25T15:51:54.850Z,26.00
2018-02-25T15:54:22.380Z,26.10
2018-02-25T15:56:49.957Z,26.20
2018-02-25T15:59:17.644Z,26.20
2018-02-25T16:01:45.864Z,26.30
2018-02-25T16:04:13.439Z,26.40
2018-02-25T16:06:40.974Z,26.70
2018-02-25T16:09:08.691Z,26.80
2018-02-25T16:11:38.055Z,27.20
2018-02-25T16:14:06.566Z,27.20
2018-02-25T16:16:34.984Z,27.10
2018-02-25T16:19:03.273Z,27.30
2018-02-25T16:21:30.863Z,27.30
2018-02-25T16:23:59.193Z,27.40
2018-02-25T16:26:26.786Z,27.40
2018-02-25T16:28:54.410Z,27.50
2018-02-25T16:31:22.298Z,27.80
2018-02-25T16:33:52.697Z,27.80
2018-02-25T16:36:20.355Z,27.80
2018-02-25T16:38:47.962Z,27.90
2018-02-25T16:41:16.381Z,28.40
2018-02-25T16:43:44.084Z,28.30
2018-02-25T16:46:14.473Z,28.60
2018-02-25T16:48:42.093Z,28.70
2018-02-25T16:51:09.727Z,28.70
2018-02-25T16:53:37.506Z,28.90
2018-02-25T16:56:05.131Z,29.10
2018-02-25T16:58:32.877Z,29.10
2018-02-25T17:01:00.444Z,29.00
2018-02-25T17:03:28.034Z,28.90
2018-02-25T17:05:55.532Z,29.10
2018-02-25T17:08:23.277Z,29.30
2018-02-25T17:10:50.876Z,29.40
2018-02-25T17:13:18.439Z,29.50
2018-02-25T17:15:46.160Z,29.80
2018-02-25T17:18:13.745Z,29.70
2018-02-25T17:20:41.270Z,29.60
2018-02-25T17:23:09.724Z,29.80
2018-02-25T17:25:37.283Z,29.80
2018-02-25T17:28:04.866Z,29.90
2018-02-25T17:30:32.501Z,29.90
2018-02-25T17:33:00.097Z,30.00
2018-02-25T17:35:27.656Z,30.20
2018-02-25T17:37:55.222Z,30.30
2018-02-25T17:40:22.949Z,30.40
2018-02-25T17:42:50.586Z,30.90
2018-02-25T17:45:18.202Z,30.80
2018-02-25T17:47:45.801Z,30.70
2018-02-25T17:50:13.551Z,30.80
2018-02-25T17:52:42.728Z,30.80
2018-02-25T17:55:10.447Z,30.80
2018-02-25T17:57:38.921Z,31.40
2018-02-25T18:00:06.614Z,31.30
2018-02-25T18:02:34.389Z,31.30
2018-02-25T18:05:02.055Z,31.50
2018-02-25T18:07:29.833Z,31.70
2018-02-25T18:09:57.571Z,31.70
2018-02-25T18:12:25.269Z,31.80
2018-02-25T18:14:53.032Z,32.00
2018-02-25T18:17:21.655Z,32.10
2018-02-25T18:19:49.293Z,32.10
2018-02-25T18:22:16.894Z,31.80
2018-02-25T18:24:44.425Z,31.80
2018-02-25T18:27:12.045Z,31.80
2018-02-25T18:29:39.574Z,32.00
2018-02-25T18:32:07.131Z,32.40
2018-02-25T18:34:34.742Z,32.40
2018-02-25T18:37:02.339Z,32.60
2018-02-25T18:39:30.757Z,32.40
2018-02-25T18:41:58.359Z,32.40
2018-02-25T18:44:26.659Z,32.50
2018-02-25T18:46:55.180Z,32.60
2018-02-25T18:49:22.758Z,32.60
2018-02-25T18:51:51.960Z,32.80
2018-02-25T18:54:19.522Z,32.70
2018-02-25T18:56:47.083Z,32.80
2018-02-25T18:59:14.798Z,33.20
2018-02-25T19:01:42.864Z,33.40
2018-02-25T19:04:11.867Z,33.60
2018-02-25T19:06:39.629Z,33.80
2018-02-25T19:09:08.603Z,33.70
2018-02-25T19:11:38.357Z,33.70
2018-02-25T19:14:06.000Z,33.70
2018-02-25T19:16:33.879Z,33.90
2018-02-25T19:19:01.590Z,33.90
2018-02-25T19:21:29.998Z,34.30
2018-02-25T19:23:57.828Z,34.30
2018-02-25T19:26:26.206Z,34.40
2018-02-25T19:28:54.191Z,34.40
2018-02-25T19:31:21.760Z,34.50
2018-02-25T19:33:52.186Z,34.70
2018-02-25T19:36:25.755Z,34.80
2018-02-25T19:38:59.857Z,35.00
2018-02-25T19:41:33.073Z,35.00
2018-02-25T19:44:00.744Z,35.10
2018-02-25T19:46:28.301Z,35.00
2018-02-25T19:48:55.918Z,35.10
2018-02-25T19:51:23.554Z,35.20
2018-02-25T19:53:52.439Z,35.50
2018-02-25T19:56:21.549Z,36.00
2018-02-25T19:58:50.549Z,36.30
2018-02-25T20:01:19.105Z,36.10
2018-02-25T20:03:47.534Z,36.20
2018-02-25T20:06:15.135Z,36.10
2018-02-25T20:08:43.750Z,36.40
2018-02-25T20:11:12.627Z,36.90
2018-02-25T20:13:40.765Z,38.60
2018-02-25T20:16:08.431Z,40.00
2018-02-25T20:18:36.797Z,41.80
2018-02-25T20:21:04.570Z,41.10
2018-02-25T20:23:32.104Z,41.60
2018-02-25T20:25:59.778Z,42.10
2018-02-25T20:28:27.706Z,43.40
2018-02-25T20:30:55.551Z,43.40
2018-02-25T20:33:23.169Z,43.60
2018-02-25T20:35:50.889Z,43.90
2018-02-25T20:38:18.888Z,44.30
2018-02-25T20:40:47.359Z,45.30
2018-02-25T20:43:14.979Z,45.30
2018-02-25T20:45:42.520Z,46.20
2018-02-25T20:48:10.174Z,46.70
2018-02-25T20:50:37.917Z,47.20
2018-02-25T20:53:05.616Z,47.60
2018-02-25T20:55:33.521Z,47.90
2018-02-25T20:58:01.637Z,48.00
2018-02-25T21:00:29.504Z,48.50
2018-02-25T21:02:57.978Z,48.00
2018-02-25T21:05:25.570Z,48.00
2018-02-25T21:07:53.159Z,47.40
2018-02-25T21:10:21.313Z,46.70
2018-02-25T21:12:48.901Z,46.30
2018-02-25T21:15:16.525Z,45.90
2018-02-25T21:17:44.196Z,45.50
2018-02-25T21:20:12.678Z,45.20
2018-02-25T21:22:40.518Z,44.60
2018-02-25T21:25:08.173Z,44.30
2018-02-25T21:27:38.187Z,44.00
2018-02-25T21:30:06.394Z,43.90
2018-02-25T21:32:33.997Z,43.70
2018-02-25T21:35:02.437Z,43.70
2018-02-25T21:37:30.149Z,43.60
2018-02-25T21:39:58.630Z,43.70
2018-02-25T21:42:26.196Z,43.60
2018-02-25T21:44:53.880Z,43.70
2018-02-25T21:47:21.839Z,43.70
2018-02-25T21:49:50.239Z,43.80
2018-02-25T21:52:24.868Z,43.80
2018-02-25T21:54:57.321Z,43.90
2018-02-25T21:57:31.321Z,44.30
2018-02-25T22:00:04.429Z,44.30
2018-02-25T22:02:37.543Z,44.20
2018-02-25T22:05:05.904Z,44.30
2018-02-25T22:07:34.269Z,44.30
2018-02-25T22:10:01.872Z,44.30
2018-02-25T22:12:29.548Z,44.40
2018-02-25T22:14:57.208Z,44.80
2018-02-25T22:17:24.758Z,44.90
2018-02-25T22:19:52.318Z,44.90
2018-02-25T22:22:19.907Z,45.20
2018-02-25T22:24:47.533Z,45.40
2018-02-25T22:27:16.160Z,45.40
2018-02-25T22:29:43.727Z,45.40
2018-02-25T22:32:11.287Z,45.60
2018-02-25T22:34:38.825Z,45.70
2018-02-25T22:37:06.411Z,46.00
2018-02-25T22:39:34.022Z,46.10
2018-02-25T22:42:01.591Z,46.50
2018-02-25T22:44:29.122Z,47.00
2018-02-25T22:46:56.723Z,47.20
2018-02-25T22:49:24.273Z,47.50
2018-02-25T22:51:51.976Z,47.90
2018-02-25T22:54:19.492Z,48.10
2018-02-25T22:56:47.018Z,48.60
2018-02-25T22:59:14.609Z,48.70
2018-02-25T23:01:42.182Z,49.30
2018-02-25T23:04:09.727Z,49.50
2018-02-25T23:06:37.408Z,49.70
2018-02-25T23:09:04.985Z,50.00
2018-02-25T23:11:32.652Z,50.10
2018-02-25T23:14:00.201Z,50.20
2018-02-25T23:16:28.497Z,50.50
2018-02-25T23:18:56.771Z,50.60
2018-02-25T23:21:25.603Z,50.90
2018-02-25T23:23:53.140Z,50.90
2018-02-25T23:26:21.462Z,50.60
2018-02-25T23:28:49.038Z,50.60
2018-02-25T23:31:16.609Z,50.60
2018-02-25T23:33:44.124Z,50.40
2018-02-25T23:36:11.669Z,50.10
2018-02-25T23:38:39.189Z,50.20
2018-02-25T23:41:07.486Z,49.90
2018-02-25T23:43:35.876Z,49.90
2018-02-25T23:46:04.156Z,49.70
2018-02-25T23:48:32.455Z,49.50
2018-02-25T23:51:00.774Z,49.00
2018-02-25T23:53:28.280Z,49.00
2018-02-25T23:55:55.802Z,49.20
2018-02-25T23:58:23.393Z,49.40
